Time;durP1;ratioP1;P1;durP2;ratioP2;P2;SDS_P1;SDS_P2;PMS_P1;PMS_P2;Temp;Humidity;BMP_temperature;BMP_pressure;BME280_temperature;BME280_humidity;BME280_pressure;Samples;Min_cycle;Max_cycle;Signal;HPM_P1;HPM_P2
2022/08/13 00:01:11;;;;;;;3.17;2.97;;;23.00;43.10;;;;;;5042870;28;20180;-86
2022/08/13 00:03:38;;;;;;;3.00;2.80;;;23.20;42.60;;;;;;5027412;28;20652;-85
2022/08/13 00:06:06;;;;;;;3.75;3.50;;;23.40;42.00;;;;;;5042837;28;20197;-88
2022/08/13 00:08:33;;;;;;;3.15;2.95;;;23.30;42.40;;;;;;5041522;28;20287;-84
2022/08/13 00:10:59;;;;;;;3.55;3.13;;;23.10;42.80;;;;;;5036726;28;20215;-88
2022/08/13 00:13:24;;;;;;;3.20;3.00;;;23.20;42.80;;;;;;5033375;28;20193;-87
2022/08/13 00:15:50;;;;;;;3.50;3.20;;;23.40;42.20;;;;;;5036006;28;20190;-85
2022/08/13 00:18:20;;;;;;;3.33;3.13;;;23.10;42.70;;;;;;5042312;28;20217;-84
2022/08/13 00:20:48;;;;;;;3.15;2.95;;;22.80;43.60;;;;;;5042396;28;20576;-86
2022/08/13 00:23:16;;;;;;;3.45;2.88;;;22.50;44.10;;;;;;5043484;28;20191;-84
2022/08/13 00:25:45;;;;;;;3.45;3.22;;;22.30;44.50;;;;;;5036413;28;20189;-85
2022/08/13 00:28:12;;;;;;;3.35;2.97;;;22.30;44.40;;;;;;5040092;28;20511;-86
2022/08/13 00:30:38;;;;;;;3.53;3.22;;;22.30;44.70;;;;;;5043454;28;20678;-87
2022/08/13 00:33:12;;;;;;;3.03;2.83;;;22.40;44.40;;;;;;5040668;28;20197;-84
2022/08/13 00:35:40;;;;;;;5.78;3.13;;;22.40;44.60;;;;;;5037821;28;20189;-86
2022/08/13 00:38:15;;;;;;;4.55;3.70;;;22.50;44.30;;;;;;5043811;28;20196;-85
2022/08/13 00:40:45;;;;;;;3.80;3.50;;;22.90;43.70;;;;;;5030384;28;20227;-86
2022/08/13 00:43:11;;;;;;;3.53;3.33;;;23.10;44.00;;;;;;5033070;28;20181;-86
2022/08/13 00:45:37;;;;;;;3.55;3.35;;;23.30;42.70;;;;;;5040924;28;20188;-84
2022/08/13 00:50:50;;;;;;;3.60;3.40;;;23.20;42.20;;;;;;5037032;28;20269;-83
2022/08/13 00:53:18;;;;;;;3.85;3.20;;;22.90;42.70;;;;;;5041751;28;20196;-85
2022/08/13 00:55:48;;;;;;;3.42;3.22;;;22.60;43.60;;;;;;5043602;28;20568;-84
2022/08/13 00:58:19;;;;;;;3.40;3.20;;;22.40;44.10;;;;;;5047832;28;20221;-84
2022/08/13 01:00:56;;;;;;;3.10;2.90;;;22.30;44.20;;;;;;5040011;28;20185;-86
2022/08/13 01:03:22;;;;;;;3.40;3.20;;;22.30;44.50;;;;;;5028191;28;20221;-83
2022/08/13 01:05:50;;;;;;;3.10;2.90;;;22.30;44.40;;;;;;5038790;28;20184;-84
2022/08/13 01:08:19;;;;;;;3.30;3.08;;;22.20;44.40;;;;;;5039178;28;20179;-88
2022/08/13 01:10:50;;;;;;;3.20;3.00;;;22.30;44.20;;;;;;5042650;28;20185;-84
2022/08/13 01:13:18;;;;;;;3.42;3.22;;;22.40;44.10;;;;;;5041718;28;20188;-85
2022/08/13 01:15:44;;;;;;;4.00;3.60;;;22.50;44.90;;;;;;5042772;28;20188;-84
2022/08/13 01:18:15;;;;;;;3.80;3.47;;;22.70;44.00;;;;;;5036661;28;20246;-86
2022/08/13 01:20:47;;;;;;;3.15;2.95;;;22.90;43.20;;;;;;5045925;28;20196;-85
2022/08/13 01:23:14;;;;;;;3.33;3.03;;;22.80;42.40;;;;;;5037424;28;20217;-85
2022/08/13 01:25:41;;;;;;;3.28;2.97;;;22.70;42.90;;;;;;5042727;28;20252;-83
2022/08/13 01:28:08;;;;;;;3.08;2.90;;;22.60;43.10;;;;;;5042098;28;20223;-86
2022/08/13 01:30:37;;;;;;;3.25;3.05;;;22.50;43.40;;;;;;5051665;28;20268;-89
2022/08/13 01:33:08;;;;;;;3.50;3.20;;;22.30;43.60;;;;;;5049215;28;20251;-91
2022/08/13 01:35:34;;;;;;;3.53;3.33;;;22.10;45.30;;;;;;5038021;28;20219;-86
2022/08/13 01:38:00;;;;;;;3.45;3.13;;;22.00;45.50;;;;;;5035755;28;20188;-84
2022/08/13 01:40:26;;;;;;;4.00;3.60;;;21.80;47.00;;;;;;5042794;28;20711;-88
2022/08/13 01:42:53;;;;;;;3.58;3.28;;;21.70;46.50;;;;;;5043404;28;20193;-85
2022/08/13 01:45:19;;;;;;;3.92;3.30;;;21.60;46.90;;;;;;5032752;28;20189;-85
2022/08/13 01:50:30;;;;;;;3.30;3.10;;;21.30;47.90;;;;;;5038362;28;20261;-85
2022/08/13 01:53:07;;;;;;;4.03;3.10;;;21.20;49.00;;;;;;5037683;28;20215;-84
2022/08/13 01:56:00;;;;;;;3.08;2.80;;;21.10;49.40;;;;;;5037110;28;20188;-84
2022/08/13 01:58:29;;;;;;;2.95;2.80;;;21.10;49.20;;;;;;5039290;28;20218;-88
2022/08/13 02:00:59;;;;;;;2.90;2.80;;;21.30;48.30;;;;;;5040499;28;20179;-85
2022/08/13 02:03:25;;;;;;;3.20;3.00;;;21.30;48.50;;;;;;5038756;28;20224;-84
2022/08/13 02:05:51;;;;;;;3.20;3.00;;;21.40;48.00;;;;;;5028564;28;20197;-85
2022/08/13 02:08:22;;;;;;;3.20;3.00;;;21.60;47.50;;;;;;5038237;28;20193;-84
2022/08/13 02:10:50;;;;;;;3.10;2.90;;;21.80;46.60;;;;;;5049275;28;20271;-84
2022/08/13 02:13:28;;;;;;;3.10;2.90;;;21.90;46.50;;;;;;5039195;28;20246;-85
2022/08/13 02:15:53;;;;;;;3.50;3.30;;;22.10;45.90;;;;;;5034410;28;20188;-85
2022/08/13 02:18:21;;;;;;;6.15;3.20;;;22.20;45.00;;;;;;5036857;28;20763;-84
2022/08/13 02:20:53;;;;;;;3.42;3.20;;;22.10;45.80;;;;;;5030534;28;20201;-85
2022/08/13 02:23:23;;;;;;;3.30;3.10;;;21.90;46.10;;;;;;5036796;28;20238;-86
2022/08/13 02:25:50;;;;;;;3.40;3.20;;;22.00;45.90;;;;;;5042678;28;20188;-86
2022/08/13 02:28:21;;;;;;;3.80;3.50;;;22.10;45.60;;;;;;5041055;28;20220;-84
2022/08/13 02:30:51;;;;;;;3.42;3.22;;;22.30;45.50;;;;;;5039847;28;20198;-84
2022/08/13 02:33:18;;;;;;;3.20;3.00;;;22.50;44.30;;;;;;5040702;28;20199;-85
2022/08/13 02:35:44;;;;;;;3.33;3.13;;;22.60;43.30;;;;;;5033555;28;20189;-83
2022/08/13 02:38:12;;;;;;;3.40;3.10;;;22.60;42.70;;;;;;5025035;28;20655;-86
2022/08/13 02:43:27;;;;;;;3.42;3.20;;;22.80;42.60;;;;;;5035701;28;20207;-84
2022/08/13 02:45:55;;;;;;;3.22;3.03;;;22.80;42.80;;;;;;5036676;28;20272;-88
2022/08/13 02:48:23;;;;;;;3.58;3.38;;;22.50;43.30;;;;;;5040643;28;20197;-85
2022/08/13 02:50:50;;;;;;;3.35;3.05;;;22.30;43.90;;;;;;5038827;28;20209;-85
2022/08/13 02:53:19;;;;;;;3.38;3.17;;;22.10;44.70;;;;;;5040633;28;20257;-84
2022/08/13 02:55:47;;;;;;;3.95;3.25;;;21.80;45.60;;;;;;5035783;28;20219;-84
2022/08/13 02:58:14;;;;;;;3.22;3.03;;;21.70;46.30;;;;;;5036183;28;20306;-85
2022/08/13 03:00:41;;;;;;;3.00;2.80;;;21.40;47.20;;;;;;5023246;28;20198;-86
2022/08/13 03:03:08;;;;;;;2.95;2.75;;;21.10;48.10;;;;;;5031794;28;20192;-86
2022/08/13 03:05:34;;;;;;;3.60;3.30;;;21.00;48.60;;;;;;5029924;28;20549;-89
2022/08/13 03:08:03;;;;;;;3.70;3.40;;;20.90;48.80;;;;;;5034238;28;20596;-84
2022/08/13 03:10:29;;;;;;;3.88;3.30;;;20.80;49.30;;;;;;5040224;28;20237;-84
2022/08/13 03:13:01;;;;;;;3.10;2.90;;;20.70;50.00;;;;;;5037595;28;20193;-87
2022/08/13 03:15:28;;;;;;;3.38;3.08;;;20.60;50.50;;;;;;5032644;28;20182;-85
2022/08/13 03:17:54;;;;;;;3.97;3.25;;;20.60;50.70;;;;;;5041161;28;20275;-85
2022/08/13 03:20:20;;;;;;;3.33;3.13;;;20.60;50.00;;;;;;5038835;28;20213;-85
2022/08/13 03:22:57;;;;;;;3.40;3.20;;;20.60;50.60;;;;;;5043803;28;20213;-83
2022/08/13 03:25:26;;;;;;;3.40;3.17;;;20.50;51.00;;;;;;5045456;28;20280;-86
2022/08/13 03:27:54;;;;;;;4.40;4.10;;;20.40;50.90;;;;;;5037845;28;20186;-85
2022/08/13 03:30:21;;;;;;;3.60;3.40;;;20.40;51.20;;;;;;5042013;28;20197;-86
2022/08/13 03:32:49;;;;;;;3.28;3.08;;;20.50;50.90;;;;;;5045360;28;20193;-85
2022/08/13 03:35:20;;;;;;;2.83;2.63;;;20.50;51.30;;;;;;5041783;28;20229;-86
2022/08/13 03:37:53;;;;;;;4.10;2.83;;;20.50;51.30;;;;;;5041985;28;20233;-84
2022/08/13 03:40:21;;;;;;;3.58;3.28;;;20.50;51.00;;;;;;5038227;28;20216;-84
2022/08/13 03:42:50;;;;;;;3.60;3.30;;;20.40;51.10;;;;;;5044265;28;20219;-84
2022/08/13 03:45:17;;;;;;;3.53;3.25;;;20.40;51.30;;;;;;5044973;28;20192;-84
2022/08/13 03:47:44;;;;;;;4.28;3.15;;;20.40;51.50;;;;;;5033806;28;20216;-85
2022/08/13 03:50:12;;;;;;;3.28;3.00;;;20.30;51.70;;;;;;5032947;28;20260;-84
2022/08/13 03:52:38;;;;;;;3.42;3.15;;;20.20;52.00;;;;;;5037189;28;20193;-87
2022/08/13 03:55:18;;;;;;;3.25;3.05;;;20.20;52.00;;;;;;5041308;28;20665;-87
2022/08/13 03:57:44;;;;;;;3.25;3.05;;;20.20;52.90;;;;;;5035671;28;20213;-86
2022/08/13 04:00:12;;;;;;;3.33;3.13;;;20.40;51.10;;;;;;5036661;28;20211;-86
2022/08/13 04:02:40;;;;;;;3.40;3.10;;;20.50;51.30;;;;;;5037218;28;20224;-86
2022/08/13 04:05:11;;;;;;;3.20;2.90;;;20.70;50.60;;;;;;5047836;28;20199;-83
2022/08/13 04:07:37;;;;;;;3.42;3.17;;;20.80;50.10;;;;;;5043979;28;20353;-84
2022/08/13 04:10:04;;;;;;;3.38;3.17;;;20.90;50.40;;;;;;5043941;28;20209;-85
2022/08/13 04:12:30;;;;;;;4.57;3.45;;;21.00;49.30;;;;;;5042317;28;20190;-82
2022/08/13 04:14:56;;;;;;;3.10;2.90;;;21.10;49.00;;;;;;5043016;28;20203;-88
2022/08/13 04:17:21;;;;;;;3.33;3.13;;;21.20;48.70;;;;;;5046216;28;20694;-85
2022/08/13 04:19:47;;;;;;;3.13;2.92;;;21.20;49.00;;;;;;5042141;28;20254;-85
2022/08/13 04:22:13;;;;;;;3.53;3.22;;;21.20;48.90;;;;;;5055729;28;20192;-91
2022/08/13 04:24:39;;;;;;;3.30;3.10;;;21.10;48.90;;;;;;5057266;28;20258;-91
2022/08/13 04:27:06;;;;;;;3.30;3.10;;;21.10;49.00;;;;;;5044689;28;20426;-86
2022/08/13 04:29:31;;;;;;;3.08;2.80;;;21.10;48.90;;;;;;5039758;28;20231;-86
2022/08/13 04:31:59;;;;;;;3.33;3.13;;;20.90;49.40;;;;;;5043073;28;20180;-85
2022/08/13 04:34:26;;;;;;;3.65;3.13;;;20.60;50.20;;;;;;5040013;28;20295;-88
2022/08/13 04:36:52;;;;;;;3.40;3.17;;;20.20;51.50;;;;;;5043552;28;20235;-85
2022/08/13 04:39:19;;;;;;;8.23;3.28;;;20.20;51.70;;;;;;5036507;28;20222;-85
2022/08/13 04:41:45;;;;;;;7.22;3.42;;;20.20;52.20;;;;;;5035508;28;20209;-86
2022/08/13 04:44:11;;;;;;;5.20;3.63;;;20.30;52.10;;;;;;5036552;28;20183;-86
2022/08/13 04:46:38;;;;;;;5.38;3.28;;;20.10;52.60;;;;;;5040037;28;20197;-87
2022/08/13 04:49:05;;;;;;;4.38;3.30;;;19.90;53.20;;;;;;5045006;28;20576;-83
2022/08/13 04:51:35;;;;;;;5.00;3.40;;;19.80;53.20;;;;;;5044458;28;20212;-84
2022/08/13 04:54:01;;;;;;;3.40;3.20;;;19.70;53.40;;;;;;5028121;28;20194;-86
2022/08/13 04:56:27;;;;;;;3.90;3.00;;;19.70;53.60;;;;;;5032138;28;20193;-87
2022/08/13 04:58:53;;;;;;;4.95;3.15;;;19.90;53.10;;;;;;5042703;28;20212;-84
2022/08/13 05:01:21;;;;;;;3.40;3.10;;;20.10;52.90;;;;;;5040570;28;20201;-87
2022/08/13 05:03:47;;;;;;;3.65;3.20;;;20.30;52.40;;;;;;5037786;28;20186;-86
2022/08/13 05:06:19;;;;;;;3.40;2.97;;;20.30;52.00;;;;;;5038372;28;20198;-85
2022/08/13 05:08:54;;;;;;;7.13;2.80;;;20.00;51.30;;;;;;5038404;28;20213;-83
2022/08/13 05:11:20;;;;;;;5.53;3.13;;;20.00;52.90;;;;;;5040504;28;20314;-85
2022/08/13 05:13:46;;;;;;;5.43;3.30;;;19.80;53.90;;;;;;5040428;28;20201;-84
2022/08/13 05:16:14;;;;;;;3.50;3.20;;;19.80;53.80;;;;;;5042895;28;20199;-84
2022/08/13 05:18:43;;;;;;;4.15;3.38;;;20.00;53.00;;;;;;5034826;28;20216;-84
2022/08/13 05:21:09;;;;;;;4.88;3.10;;;20.20;52.60;;;;;;5038300;28;20232;-84
2022/08/13 05:23:38;;;;;;;3.50;3.20;;;20.30;52.10;;;;;;5042076;28;20186;-87
2022/08/13 05:26:04;;;;;;;3.38;3.17;;;20.40;50.30;;;;;;5039482;28;20657;-86
2022/08/13 05:28:31;;;;;;;3.47;3.20;;;20.50;50.40;;;;;;5035566;28;20193;-83
2022/08/13 05:30:57;;;;;;;5.70;3.47;;;20.40;50.40;;;;;;5036887;28;20243;-83
2022/08/13 05:33:26;;;;;;;3.35;3.15;;;20.30;50.70;;;;;;5041434;28;20252;-83
2022/08/13 05:35:57;;;;;;;3.95;3.47;;;20.50;50.10;;;;;;5039336;28;20272;-83
2022/08/13 05:38:24;;;;;;;3.67;3.38;;;20.60;50.20;;;;;;5041652;28;20205;-83
2022/08/13 05:40:52;;;;;;;4.10;3.17;;;20.60;50.10;;;;;;5037109;28;20178;-85
2022/08/13 05:43:20;;;;;;;4.65;2.80;;;20.60;50.20;;;;;;5035531;28;20541;-83
2022/08/13 05:45:57;;;;;;;3.58;3.33;;;20.50;50.50;;;;;;5040810;28;20213;-83
2022/08/13 05:48:28;;;;;;;3.50;3.20;;;20.50;50.30;;;;;;5034326;28;20675;-85
2022/08/13 05:50:59;;;;;;;3.70;2.90;;;20.60;50.00;;;;;;5033783;28;20258;-86
2022/08/13 05:53:26;;;;;;;3.67;2.83;;;20.80;50.20;;;;;;5041896;28;20196;-84
2022/08/13 05:55:55;;;;;;;4.05;3.50;;;20.90;49.60;;;;;;5033133;28;20194;-84
2022/08/13 05:58:23;;;;;;;3.13;2.92;;;21.00;49.60;;;;;;5034177;28;20769;-84
2022/08/13 06:03:33;;;;;;;3.80;3.45;;;21.10;49.70;;;;;;5038973;28;20197;-84
2022/08/13 06:06:01;;;;;;;4.38;3.70;;;21.00;49.70;;;;;;5037406;28;20183;-85
2022/08/13 06:08:35;;;;;;;3.40;3.20;;;21.00;49.30;;;;;;5031377;28;20202;-85
2022/08/13 06:11:06;;;;;;;3.67;3.33;;;21.10;48.40;;;;;;5037477;28;20194;-85
2022/08/13 06:13:35;;;;;;;4.50;3.30;;;21.30;49.10;;;;;;5029511;28;20198;-85
2022/08/13 06:16:03;;;;;;;3.50;3.20;;;21.40;48.50;;;;;;5035751;28;20191;-85
2022/08/13 06:18:33;;;;;;;3.13;2.92;;;21.40;48.10;;;;;;5036398;28;20663;-84
2022/08/13 06:21:03;;;;;;;3.45;3.15;;;21.40;47.50;;;;;;5033093;28;20181;-85
2022/08/13 06:23:31;;;;;;;3.10;2.90;;;21.40;47.80;;;;;;5031773;28;20584;-85
2022/08/13 06:25:58;;;;;;;3.08;2.88;;;21.40;48.10;;;;;;5034293;28;20184;-84
2022/08/13 06:28:28;;;;;;;3.17;2.97;;;21.20;48.30;;;;;;5037216;28;20203;-85
2022/08/13 06:31:01;;;;;;;2.95;2.75;;;21.30;47.80;;;;;;5038114;28;20203;-86
2022/08/13 06:33:28;;;;;;;5.00;3.33;;;21.20;48.00;;;;;;5035280;28;20186;-87
2022/08/13 06:35:57;;;;;;;3.83;3.53;;;21.30;48.40;;;;;;5034432;28;20191;-86
2022/08/13 06:38:32;;;;;;;3.17;2.97;;;21.30;48.10;;;;;;5037562;28;20210;-86
2022/08/13 06:40:59;;;;;;;3.05;2.85;;;21.30;47.80;;;;;;5030330;28;20202;-86
2022/08/13 06:43:30;;;;;;;5.45;3.10;;;21.50;47.50;;;;;;5033340;28;20210;-87
2022/08/13 06:45:59;;;;;;;3.92;3.50;;;21.50;47.50;;;;;;5030458;28;20213;-86
2022/08/13 06:48:27;;;;;;;4.55;3.10;;;21.50;47.60;;;;;;5035073;28;20254;-85
2022/08/13 06:50:53;;;;;;;3.33;3.13;;;21.70;47.50;;;;;;5037573;28;20224;-83
2022/08/13 06:53:19;;;;;;;3.47;2.90;;;21.80;46.30;;;;;;5032079;28;20224;-85
2022/08/13 06:55:48;;;;;;;3.13;3.00;;;21.90;46.90;;;;;;5037871;28;20191;-84
2022/08/13 06:58:15;;;;;;;4.28;3.10;;;21.90;46.50;;;;;;5040004;28;20201;-85
2022/08/13 07:00:42;;;;;;;3.80;3.38;;;21.90;46.90;;;;;;5037090;28;20194;-85
2022/08/13 07:03:10;;;;;;;3.45;3.20;;;22.00;46.80;;;;;;5035947;28;20186;-85
2022/08/13 07:05:38;;;;;;;4.30;3.45;;;22.00;46.90;;;;;;5040272;28;20192;-84
2022/08/13 07:08:07;;;;;;;3.72;3.28;;;22.10;45.70;;;;;;5040075;28;20276;-85
2022/08/13 07:10:40;;;;;;;3.40;3.20;;;22.20;45.40;;;;;;5049939;28;20212;-86
2022/08/13 07:13:06;;;;;;;3.67;3.15;;;22.30;44.70;;;;;;5042806;28;20203;-85
2022/08/13 07:15:32;;;;;;;3.92;3.20;;;22.40;44.80;;;;;;5034882;28;20573;-84
2022/08/13 07:17:59;;;;;;;3.40;3.10;;;22.50;44.90;;;;;;5038706;28;20220;-85
2022/08/13 07:20:25;;;;;;;3.45;3.05;;;22.60;44.80;;;;;;5036724;28;20228;-85
2022/08/13 07:22:53;;;;;;;3.22;3.03;;;22.70;44.80;;;;;;5031543;28;20281;-85
2022/08/13 07:25:24;;;;;;;3.97;3.63;;;22.80;43.70;;;;;;5034262;28;20188;-85
2022/08/13 07:27:51;;;;;;;4.63;3.13;;;22.90;42.70;;;;;;5035154;28;20178;-85
2022/08/13 07:30:19;;;;;;;4.43;3.50;;;22.90;43.30;;;;;;5035341;28;20248;-84
2022/08/13 07:32:45;;;;;;;3.30;3.10;;;23.00;43.90;;;;;;5044082;28;20292;-84
2022/08/13 07:35:11;;;;;;;3.97;3.55;;;23.10;44.70;;;;;;5038676;28;20196;-85
2022/08/13 07:37:39;;;;;;;3.85;3.55;;;23.10;43.90;;;;;;5042989;28;20271;-84
2022/08/13 07:40:09;;;;;;;3.70;3.40;;;23.20;43.40;;;;;;5039840;28;20232;-84
2022/08/13 07:42:40;;;;;;;6.15;3.55;;;23.20;43.10;;;;;;5031876;28;20185;-84
2022/08/13 07:45:10;;;;;;;3.97;3.63;;;23.20;43.50;;;;;;5041642;28;20185;-85
2022/08/13 07:47:38;;;;;;;3.58;3.13;;;23.30;43.70;;;;;;5034833;28;20420;-86
2022/08/13 07:50:05;;;;;;;3.90;3.60;;;23.40;43.10;;;;;;5039515;28;20684;-85
2022/08/13 07:52:32;;;;;;;5.50;3.35;;;23.50;43.20;;;;;;5035645;28;20189;-85
2022/08/13 07:55:00;;;;;;;4.05;3.33;;;23.60;43.50;;;;;;5036936;28;20199;-86
2022/08/13 07:57:32;;;;;;;6.88;3.55;;;23.60;43.20;;;;;;5034316;28;20189;-85
2022/08/13 07:59:58;;;;;;;3.65;3.45;;;23.60;42.50;;;;;;5034912;28;20696;-85
2022/08/13 08:02:31;;;;;;;3.78;3.22;;;23.70;42.70;;;;;;5040186;28;20253;-85
2022/08/13 08:04:57;;;;;;;3.55;3.35;;;23.70;42.30;;;;;;5033911;28;20186;-85
2022/08/13 08:07:27;;;;;;;3.70;3.40;;;23.90;42.00;;;;;;5037864;28;20189;-85
2022/08/13 08:09:54;;;;;;;3.90;3.40;;;24.00;42.10;;;;;;5040396;28;20267;-85
2022/08/13 08:12:35;;;;;;;3.40;3.10;;;24.00;41.60;;;;;;5036185;28;20192;-84
2022/08/13 08:15:05;;;;;;;3.80;3.50;;;24.20;42.40;;;;;;5033040;28;20178;-85
2022/08/13 08:17:31;;;;;;;4.28;3.88;;;24.30;42.00;;;;;;5036892;28;20533;-86
2022/08/13 08:19:57;;;;;;;3.78;3.47;;;24.40;41.30;;;;;;5035479;28;20255;-85
2022/08/13 08:22:24;;;;;;;4.60;3.58;;;24.50;41.40;;;;;;5038688;28;20636;-85
2022/08/13 08:24:50;;;;;;;5.75;3.75;;;24.50;41.00;;;;;;5041342;28;20208;-85
2022/08/13 08:27:17;;;;;;;4.07;3.78;;;24.60;40.80;;;;;;5038055;28;20201;-85
2022/08/13 08:29:44;;;;;;;3.58;3.38;;;24.60;41.10;;;;;;5039376;28;20284;-85
2022/08/13 08:32:12;;;;;;;4.63;3.40;;;24.70;40.50;;;;;;5030519;28;20189;-84
2022/08/13 08:34:40;;;;;;;3.85;3.50;;;24.80;40.00;;;;;;5044365;28;20196;-84
2022/08/13 08:37:06;;;;;;;4.05;3.75;;;24.90;40.70;;;;;;5033864;28;20193;-85
2022/08/13 08:42:38;;;;;;;3.45;3.25;;;25.30;40.60;;;;;;5041122;28;20203;-86
2022/08/13 08:45:16;;;;;;;3.92;3.58;;;25.50;40.10;;;;;;5034931;28;20283;-85
2022/08/13 08:47:42;;;;;;;5.68;4.05;;;25.70;39.10;;;;;;5038636;28;20264;-85
2022/08/13 08:50:09;;;;;;;3.90;3.60;;;25.70;38.90;;;;;;5043888;28;20660;-85
2022/08/13 08:55:20;;;;;;;4.32;3.97;;;25.90;37.80;;;;;;5036366;28;20282;-85
2022/08/13 08:57:47;;;;;;;3.95;3.60;;;26.00;37.90;;;;;;5028753;28;20193;-85
2022/08/13 09:00:15;;;;;;;4.22;3.92;;;26.10;37.80;;;;;;5037647;28;20236;-84
2022/08/13 09:02:45;;;;;;;3.72;3.50;;;26.20;38.40;;;;;;5032457;28;20185;-85
2022/08/13 09:05:14;;;;;;;3.97;3.67;;;26.40;38.40;;;;;;5034949;28;20189;-85
2022/08/13 09:07:42;;;;;;;3.92;3.63;;;26.60;37.40;;;;;;5030813;28;20232;-85
2022/08/13 09:10:11;;;;;;;3.60;3.40;;;26.50;38.20;;;;;;5038094;28;20206;-86
2022/08/13 09:12:40;;;;;;;4.13;3.83;;;26.60;38.00;;;;;;5037965;28;20235;-86
2022/08/13 09:15:07;;;;;;;3.30;3.10;;;26.70;36.90;;;;;;5033518;28;20192;-86
2022/08/13 09:17:34;;;;;;;4.30;3.95;;;26.80;37.10;;;;;;5031272;28;20672;-86
2022/08/13 09:20:01;;;;;;;4.10;3.80;;;27.00;37.70;;;;;;5041285;28;20231;-85
2022/08/13 09:22:26;;;;;;;4.57;3.63;;;27.30;36.20;;;;;;5036616;28;20208;-84
2022/08/13 09:24:56;;;;;;;4.00;3.80;;;27.30;36.00;;;;;;5031694;28;20189;-85
2022/08/13 09:27:22;;;;;;;10.30;4.97;;;27.60;35.90;;;;;;5031907;28;20185;-85
2022/08/13 09:29:50;;;;;;;4.30;3.83;;;27.80;35.70;;;;;;5036892;28;20247;-86
2022/08/13 09:32:17;;;;;;;3.85;3.55;;;28.00;34.40;;;;;;5031731;28;20236;-85
2022/08/13 09:34:46;;;;;;;4.07;3.75;;;28.00;32.30;;;;;;5038191;28;20199;-85
2022/08/13 09:37:13;;;;;;;7.13;3.58;;;28.10;31.80;;;;;;5039641;28;20188;-85
2022/08/13 09:39:53;;;;;;;3.83;3.53;;;28.30;30.50;;;;;;5037811;28;20531;-85
2022/08/13 09:42:28;;;;;;;6.15;3.55;;;28.50;30.60;;;;;;5048905;28;20185;-85
2022/08/13 09:44:58;;;;;;;3.70;3.50;;;28.60;30.90;;;;;;5034849;28;20184;-85
2022/08/13 09:47:25;;;;;;;3.92;3.55;;;28.50;30.70;;;;;;5038313;28;20287;-83
2022/08/13 09:49:51;;;;;;;3.65;3.45;;;28.60;30.00;;;;;;5038466;28;20227;-85
2022/08/13 09:52:17;;;;;;;3.95;3.58;;;28.50;30.50;;;;;;5033633;28;20249;-84
2022/08/13 09:54:43;;;;;;;3.85;3.58;;;28.70;30.20;;;;;;5039340;28;20177;-84
2022/08/13 09:57:10;;;;;;;3.55;3.35;;;29.10;30.20;;;;;;5044808;28;20184;-84
2022/08/13 09:59:36;;;;;;;3.85;3.65;;;29.30;30.10;;;;;;5037915;28;20588;-87
2022/08/13 10:02:12;;;;;;;3.95;3.75;;;29.30;29.90;;;;;;5030404;28;20193;-85
2022/08/13 10:04:38;;;;;;;4.00;3.80;;;29.50;29.20;;;;;;5028202;28;20668;-86
2022/08/13 10:07:07;;;;;;;3.65;3.40;;;29.50;29.10;;;;;;5035707;28;20197;-85
2022/08/13 10:09:36;;;;;;;3.90;3.60;;;29.50;29.20;;;;;;5032288;28;20223;-87
2022/08/13 10:12:03;;;;;;;3.95;3.60;;;29.70;28.80;;;;;;5030651;28;20221;-86
2022/08/13 10:14:29;;;;;;;3.88;3.55;;;29.80;28.90;;;;;;5033716;28;20216;-86
2022/08/13 10:16:55;;;;;;;4.18;3.67;;;30.00;28.50;;;;;;5038269;28;20188;-87
2022/08/13 10:19:20;;;;;;;3.80;3.50;;;30.20;28.90;;;;;;5041406;28;20289;-86
2022/08/13 10:21:46;;;;;;;3.90;3.60;;;30.40;28.40;;;;;;5039198;28;20194;-86
2022/08/13 10:24:12;;;;;;;4.30;3.85;;;30.10;28.40;;;;;;5033363;28;20193;-85
2022/08/13 10:26:40;;;;;;;4.03;3.72;;;30.40;28.10;;;;;;5035685;28;20196;-85
2022/08/13 10:29:13;;;;;;;3.70;3.50;;;30.50;27.40;;;;;;5034713;28;20212;-85
2022/08/13 10:31:38;;;;;;;4.82;3.78;;;30.70;27.30;;;;;;5016575;28;20197;-84
2022/08/13 10:34:05;;;;;;;3.95;3.65;;;30.90;27.10;;;;;;5034317;28;20283;-85
2022/08/13 10:36:33;;;;;;;3.67;3.40;;;31.00;27.50;;;;;;5033849;28;20244;-86
2022/08/13 10:38:59;;;;;;;4.10;3.80;;;31.00;27.20;;;;;;5034672;28;20212;-85
2022/08/13 10:41:25;;;;;;;4.50;4.20;;;31.00;27.10;;;;;;5031589;28;20197;-85
2022/08/13 10:43:54;;;;;;;4.32;3.90;;;31.30;27.00;;;;;;5037643;28;20711;-86
2022/08/13 10:46:20;;;;;;;3.80;3.60;;;31.60;26.50;;;;;;5033649;28;20189;-85
2022/08/13 10:48:51;;;;;;;4.05;3.67;;;31.40;26.40;;;;;;5032251;28;20224;-85
2022/08/13 10:51:17;;;;;;;4.22;3.83;;;31.50;26.60;;;;;;5035545;28;20214;-86
2022/08/13 10:53:55;;;;;;;4.00;3.80;;;31.30;26.90;;;;;;5040234;28;20184;-86
2022/08/13 10:56:22;;;;;;;4.72;3.75;;;31.60;26.20;;;;;;5027928;28;20228;-86
2022/08/13 10:58:49;;;;;;;4.97;3.85;;;31.60;26.20;;;;;;5034199;28;20280;-86
2022/08/13 11:01:15;;;;;;;3.90;3.60;;;31.70;25.80;;;;;;5039023;28;20664;-86
2022/08/13 11:03:44;;;;;;;3.97;3.67;;;31.50;26.10;;;;;;5034074;28;20195;-86
2022/08/13 11:06:12;;;;;;;4.32;3.97;;;31.50;25.90;;;;;;5032000;28;20259;-85
2022/08/13 11:08:37;;;;;;;3.63;3.42;;;31.60;25.40;;;;;;5041258;28;20239;-86
2022/08/13 11:11:06;;;;;;;3.92;3.63;;;31.40;25.80;;;;;;5036734;28;20652;-86
2022/08/13 11:13:32;;;;;;;4.30;3.90;;;31.60;26.00;;;;;;5039977;28;20188;-86
2022/08/13 11:16:00;;;;;;;4.20;3.90;;;31.70;25.70;;;;;;5034673;28;20192;-85
2022/08/13 11:18:27;;;;;;;9.95;4.00;;;31.70;26.00;;;;;;5036034;28;20185;-86
2022/08/13 11:21:02;;;;;;;4.47;3.63;;;31.60;26.00;;;;;;5031724;28;20205;-86
2022/08/13 11:23:31;;;;;;;4.00;3.80;;;31.60;26.10;;;;;;5034730;28;20662;-86
2022/08/13 11:25:57;;;;;;;3.88;3.53;;;32.00;25.90;;;;;;5038172;28;20276;-87
2022/08/13 11:28:23;;;;;;;3.92;3.60;;;32.50;25.40;;;;;;5039127;28;20717;-86
2022/08/13 11:30:50;;;;;;;4.30;4.00;;;32.70;25.30;;;;;;5040460;28;20261;-86
2022/08/13 11:33:16;;;;;;;4.03;3.83;;;33.10;24.20;;;;;;5037495;28;20183;-86
2022/08/13 11:35:43;;;;;;;4.22;3.92;;;33.20;23.90;;;;;;5035612;28;20210;-86
2022/08/13 11:38:11;;;;;;;4.47;4.18;;;33.10;24.20;;;;;;5044251;28;20559;-86
2022/08/13 11:40:37;;;;;;;3.90;3.70;;;33.00;24.40;;;;;;5041819;28;20640;-86
2022/08/13 11:43:04;;;;;;;4.22;3.80;;;32.90;23.80;;;;;;5041625;28;20275;-86
2022/08/13 11:45:29;;;;;;;4.50;4.20;;;33.00;24.00;;;;;;5034339;28;20249;-85
2022/08/13 11:47:55;;;;;;;4.10;3.90;;;33.30;23.90;;;;;;5029054;28;20223;-86
2022/08/13 11:50:21;;;;;;;4.10;3.90;;;33.30;24.10;;;;;;5042420;28;20508;-86
2022/08/13 11:52:47;;;;;;;4.95;4.40;;;33.70;23.50;;;;;;5045291;28;20664;-87
2022/08/13 11:55:12;;;;;;;4.03;3.80;;;33.90;23.00;;;;;;5040526;28;20195;-86
2022/08/13 11:57:38;;;;;;;6.53;4.50;;;34.20;22.50;;;;;;5036955;28;20190;-86
2022/08/13 12:00:05;;;;;;;4.50;4.07;;;33.90;23.20;;;;;;5037442;28;20240;-86
2022/08/13 12:02:32;;;;;;;4.30;4.00;;;33.70;23.20;;;;;;5041281;28;20247;-87
2022/08/13 12:04:58;;;;;;;5.32;3.78;;;33.70;22.90;;;;;;5017280;28;20216;-87
2022/08/13 12:07:24;;;;;;;4.60;4.13;;;33.70;23.20;;;;;;5043353;28;20201;-85
2022/08/13 12:09:50;;;;;;;5.53;4.07;;;33.80;22.40;;;;;;5036255;28;20707;-86
2022/08/13 12:12:16;;;;;;;4.40;4.10;;;33.90;22.70;;;;;;5035249;28;20224;-86
2022/08/13 12:14:42;;;;;;;4.25;4.05;;;34.10;22.80;;;;;;5034282;28;20664;-86
2022/08/13 12:17:07;;;;;;;4.60;4.20;;;34.10;23.00;;;;;;5028431;28;20196;-87
2022/08/13 12:19:34;;;;;;;4.15;3.95;;;34.40;22.20;;;;;;5033120;28;20235;-86
2022/08/13 12:22:00;;;;;;;4.40;4.00;;;34.70;22.30;;;;;;5040706;28;20200;-88
2022/08/13 12:24:27;;;;;;;4.40;4.20;;;34.30;22.40;;;;;;5034198;28;20196;-86
2022/08/13 12:26:52;;;;;;;4.30;4.00;;;34.10;22.40;;;;;;5041791;28;20192;-86
2022/08/13 12:29:18;;;;;;;4.78;4.47;;;34.30;22.90;;;;;;5045632;28;20209;-85
2022/08/13 12:31:44;;;;;;;4.55;4.25;;;34.60;22.90;;;;;;5045098;28;20664;-86
2022/08/13 12:34:09;;;;;;;4.50;4.30;;;34.60;22.70;;;;;;5044503;28;20189;-85
2022/08/13 12:36:35;;;;;;;4.70;4.40;;;35.10;22.90;;;;;;5042226;28;20192;-85
2022/08/13 12:39:01;;;;;;;4.75;4.35;;;34.80;22.90;;;;;;5041615;28;20280;-91
2022/08/13 12:41:31;;;;;;;4.95;4.65;;;34.90;22.50;;;;;;5057627;28;20177;-91
2022/08/13 12:43:57;;;;;;;4.80;4.40;;;35.20;22.40;;;;;;5048481;28;20173;-84
2022/08/13 12:46:23;;;;;;;4.97;4.60;;;35.00;22.80;;;;;;5036459;28;20196;-86
2022/08/13 12:48:49;;;;;;;5.00;4.60;;;34.70;22.80;;;;;;5035508;28;20228;-85
2022/08/13 12:51:14;;;;;;;5.00;4.63;;;35.00;22.50;;;;;;5044429;28;20189;-84
2022/08/13 12:53:40;;;;;;;4.72;4.32;;;35.00;22.70;;;;;;5044980;28;20161;-85
2022/08/13 12:56:06;;;;;;;5.28;4.85;;;35.10;22.40;;;;;;5029789;28;20181;-85
2022/08/13 12:58:31;;;;;;;4.75;4.55;;;35.50;22.50;;;;;;5024033;28;20256;-85
2022/08/13 13:00:58;;;;;;;5.07;4.68;;;35.80;21.30;;;;;;5024586;28;20174;-85
2022/08/13 13:03:28;;;;;;;5.70;5.00;;;35.90;21.20;;;;;;5025050;28;20181;-84
2022/08/13 13:05:55;;;;;;;5.28;4.88;;;36.00;21.40;;;;;;5028319;28;20216;-85
2022/08/13 13:08:30;;;;;;;5.50;5.10;;;36.40;21.00;;;;;;5042346;28;20184;-85